sensor_id;sensor_type;location;lat;lon;timestamp;P1;durP1;ratioP1;P2;durP2;ratioP2
7875;SDS011;69649;53.712;9.680;2023-10-08T00:02:26;10.47;;;2.13;;
7875;SDS011;69649;53.712;9.680;2023-10-08T00:04:53;4.50;;;1.90;;
7875;SDS011;69649;53.712;9.680;2023-10-08T00:07:23;5.30;;;2.30;;
7875;SDS011;69649;53.712;9.680;2023-10-08T00:09:53;8.33;;;2.40;;
7875;SDS011;69649;53.712;9.680;2023-10-08T00:12:19;5.43;;;2.10;;
7875;SDS011;69649;53.712;9.680;2023-10-08T00:14:45;6.20;;;1.90;;
7875;SDS011;69649;53.712;9.680;2023-10-08T00:17:17;9.53;;;2.43;;
7875;SDS011;69649;53.712;9.680;2023-10-08T00:19:43;3.80;;;2.03;;
7875;SDS011;69649;53.712;9.680;2023-10-08T00:22:10;5.87;;;2.17;;
7875;SDS011;69649;53.712;9.680;2023-10-08T00:24:38;7.27;;;1.90;;
7875;SDS011;69649;53.712;9.680;2023-10-08T00:27:07;7.50;;;1.93;;
7875;SDS011;69649;53.712;9.680;2023-10-08T00:29:34;6.57;;;2.20;;
7875;SDS011;69649;53.712;9.680;2023-10-08T00:32:02;7.27;;;2.00;;
7875;SDS011;69649;53.712;9.680;2023-10-08T00:34:30;6.03;;;2.00;;
7875;SDS011;69649;53.712;9.680;2023-10-08T00:36:55;6.77;;;2.17;;
7875;SDS011;69649;53.712;9.680;2023-10-08T00:39:23;7.63;;;2.20;;
7875;SDS011;69649;53.712;9.680;2023-10-08T00:41:50;9.20;;;2.40;;
7875;SDS011;69649;53.712;9.680;2023-10-08T00:44:19;7.10;;;1.70;;
7875;SDS011;69649;53.712;9.680;2023-10-08T00:46:49;4.70;;;1.80;;
7875;SDS011;69649;53.712;9.680;2023-10-08T00:49:16;7.53;;;1.80;;
7875;SDS011;69649;53.712;9.680;2023-10-08T00:51:46;8.43;;;1.60;;
7875;SDS011;69649;53.712;9.680;2023-10-08T00:54:11;5.40;;;1.60;;
7875;SDS011;69649;53.712;9.680;2023-10-08T00:56:40;4.97;;;2.00;;
7875;SDS011;69649;53.712;9.680;2023-10-08T00:59:13;6.80;;;2.03;;
7875;SDS011;69649;53.712;9.680;2023-10-08T01:01:45;1.83;;;1.33;;
7875;SDS011;69649;53.712;9.680;2023-10-08T01:04:21;4.27;;;2.07;;
7875;SDS011;69649;53.712;9.680;2023-10-08T01:09:37;3.77;;;1.37;;
7875;SDS011;69649;53.712;9.680;2023-10-08T01:12:15;7.17;;;1.97;;
7875;SDS011;69649;53.712;9.680;2023-10-08T01:14:44;4.80;;;1.70;;
7875;SDS011;69649;53.712;9.680;2023-10-08T01:17:15;4.30;;;1.30;;
7875;SDS011;69649;53.712;9.680;2023-10-08T01:19:45;4.07;;;1.50;;
7875;SDS011;69649;53.712;9.680;2023-10-08T01:22:16;6.83;;;1.60;;
7875;SDS011;69649;53.712;9.680;2023-10-08T01:24:44;8.43;;;1.40;;
7875;SDS011;69649;53.712;9.680;2023-10-08T01:27:12;5.23;;;2.03;;
7875;SDS011;69649;53.712;9.680;2023-10-08T01:29:38;6.80;;;2.07;;
7875;SDS011;69649;53.712;9.680;2023-10-08T01:32:05;8.30;;;1.40;;
7875;SDS011;69649;53.712;9.680;2023-10-08T01:34:33;3.13;;;1.30;;
7875;SDS011;69649;53.712;9.680;2023-10-08T01:37:00;3.77;;;1.50;;
7875;SDS011;69649;53.712;9.680;2023-10-08T01:39:28;4.93;;;1.20;;
7875;SDS011;69649;53.712;9.680;2023-10-08T01:41:55;8.63;;;1.33;;
7875;SDS011;69649;53.712;9.680;2023-10-08T01:44:21;4.60;;;1.30;;
7875;SDS011;69649;53.712;9.680;2023-10-08T01:46:47;3.50;;;1.20;;
7875;SDS011;69649;53.712;9.680;2023-10-08T01:49:15;5.10;;;1.30;;
7875;SDS011;69649;53.712;9.680;2023-10-08T01:51:42;3.57;;;1.20;;
7875;SDS011;69649;53.712;9.680;2023-10-08T01:54:09;4.17;;;1.23;;
7875;SDS011;69649;53.712;9.680;2023-10-08T01:56:39;4.07;;;1.23;;
7875;SDS011;69649;53.712;9.680;2023-10-08T01:59:13;3.40;;;1.03;;
7875;SDS011;69649;53.712;9.680;2023-10-08T02:01:39;3.37;;;1.47;;
7875;SDS011;69649;53.712;9.680;2023-10-08T02:04:06;4.27;;;1.30;;
7875;SDS011;69649;53.712;9.680;2023-10-08T02:06:33;3.70;;;1.33;;
7875;SDS011;69649;53.712;9.680;2023-10-08T02:09:00;5.30;;;1.53;;
7875;SDS011;69649;53.712;9.680;2023-10-08T02:11:28;5.37;;;1.33;;
7875;SDS011;69649;53.712;9.680;2023-10-08T02:13:54;5.93;;;1.10;;
7875;SDS011;69649;53.712;9.680;2023-10-08T02:16:19;2.20;;;1.13;;
7875;SDS011;69649;53.712;9.680;2023-10-08T02:18:47;5.03;;;1.30;;
7875;SDS011;69649;53.712;9.680;2023-10-08T02:21:15;3.80;;;1.43;;
7875;SDS011;69649;53.712;9.680;2023-10-08T02:23:40;3.60;;;1.37;;
7875;SDS011;69649;53.712;9.680;2023-10-08T02:28:54;1.00;;;0.90;;
7875;SDS011;69649;53.712;9.680;2023-10-08T02:31:20;6.17;;;1.30;;
7875;SDS011;69649;53.712;9.680;2023-10-08T02:33:46;5.90;;;1.37;;
7875;SDS011;69649;53.712;9.680;2023-10-08T02:36:12;3.53;;;1.47;;
7875;SDS011;69649;53.712;9.680;2023-10-08T02:38:39;5.60;;;1.00;;
7875;SDS011;69649;53.712;9.680;2023-10-08T02:41:05;3.13;;;1.30;;
7875;SDS011;69649;53.712;9.680;2023-10-08T02:43:36;6.77;;;1.97;;
7875;SDS011;69649;53.712;9.680;2023-10-08T02:46:02;4.77;;;1.20;;
7875;SDS011;69649;53.712;9.680;2023-10-08T02:48:30;5.47;;;1.23;;
7875;SDS011;69649;53.712;9.680;2023-10-08T02:50:56;6.53;;;1.07;;
7875;SDS011;69649;53.712;9.680;2023-10-08T02:53:24;1.10;;;0.90;;
7875;SDS011;69649;53.712;9.680;2023-10-08T02:55:51;3.47;;;1.17;;
7875;SDS011;69649;53.712;9.680;2023-10-08T02:58:17;5.30;;;1.30;;
7875;SDS011;69649;53.712;9.680;2023-10-08T03:00:46;2.90;;;1.00;;
7875;SDS011;69649;53.712;9.680;2023-10-08T03:03:13;2.53;;;1.20;;
7875;SDS011;69649;53.712;9.680;2023-10-08T03:05:44;4.67;;;1.40;;
7875;SDS011;69649;53.712;9.680;2023-10-08T03:08:14;3.73;;;1.30;;
7875;SDS011;69649;53.712;9.680;2023-10-08T03:10:43;2.60;;;1.27;;
7875;SDS011;69649;53.712;9.680;2023-10-08T03:13:09;4.57;;;1.10;;
7875;SDS011;69649;53.712;9.680;2023-10-08T03:15:37;2.80;;;1.30;;
7875;SDS011;69649;53.712;9.680;2023-10-08T03:18:05;4.20;;;1.07;;
7875;SDS011;69649;53.712;9.680;2023-10-08T03:20:39;2.50;;;1.23;;
7875;SDS011;69649;53.712;9.680;2023-10-08T03:23:07;3.87;;;1.40;;
7875;SDS011;69649;53.712;9.680;2023-10-08T03:25:51;2.53;;;1.63;;
7875;SDS011;69649;53.712;9.680;2023-10-08T03:28:23;1.50;;;1.10;;
7875;SDS011;69649;53.712;9.680;2023-10-08T03:30:57;3.27;;;1.20;;
7875;SDS011;69649;53.712;9.680;2023-10-08T03:33:32;1.90;;;1.10;;
7875;SDS011;69649;53.712;9.680;2023-10-08T03:36:00;5.50;;;1.47;;
7875;SDS011;69649;53.712;9.680;2023-10-08T03:38:29;3.07;;;1.40;;
7875;SDS011;69649;53.712;9.680;2023-10-08T03:41:10;2.73;;;1.10;;
7875;SDS011;69649;53.712;9.680;2023-10-08T03:43:38;2.30;;;1.20;;
7875;SDS011;69649;53.712;9.680;2023-10-08T03:46:22;2.60;;;1.43;;
7875;SDS011;69649;53.712;9.680;2023-10-08T03:48:47;4.77;;;1.40;;
7875;SDS011;69649;53.712;9.680;2023-10-08T03:51:15;2.30;;;1.20;;
7875;SDS011;69649;53.712;9.680;2023-10-08T03:53:43;2.47;;;1.10;;
7875;SDS011;69649;53.712;9.680;2023-10-08T03:56:25;1.10;;;1.00;;
7875;SDS011;69649;53.712;9.680;2023-10-08T03:58:53;5.43;;;1.23;;
7875;SDS011;69649;53.712;9.680;2023-10-08T04:01:20;2.67;;;0.97;;
7875;SDS011;69649;53.712;9.680;2023-10-08T04:03:47;1.40;;;1.00;;
7875;SDS011;69649;53.712;9.680;2023-10-08T04:06:21;3.17;;;0.90;;
7875;SDS011;69649;53.712;9.680;2023-10-08T04:08:50;3.97;;;1.40;;
7875;SDS011;69649;53.712;9.680;2023-10-08T04:11:36;4.40;;;1.10;;
7875;SDS011;69649;53.712;9.680;2023-10-08T04:14:05;2.70;;;1.50;;
7875;SDS011;69649;53.712;9.680;2023-10-08T04:16:32;1.80;;;1.13;;
7875;SDS011;69649;53.712;9.680;2023-10-08T04:18:59;3.10;;;1.20;;
7875;SDS011;69649;53.712;9.680;2023-10-08T04:21:27;3.60;;;1.37;;
7875;SDS011;69649;53.712;9.680;2023-10-08T04:23:53;2.57;;;0.97;;
7875;SDS011;69649;53.712;9.680;2023-10-08T04:26:28;1.27;;;1.00;;
7875;SDS011;69649;53.712;9.680;2023-10-08T04:28:54;4.87;;;1.17;;
7875;SDS011;69649;53.712;9.680;2023-10-08T04:31:29;5.27;;;1.30;;
7875;SDS011;69649;53.712;9.680;2023-10-08T04:33:57;2.47;;;1.23;;
7875;SDS011;69649;53.712;9.680;2023-10-08T04:36:24;0.90;;;0.90;;
7875;SDS011;69649;53.712;9.680;2023-10-08T04:38:50;4.53;;;1.40;;
7875;SDS011;69649;53.712;9.680;2023-10-08T04:41:18;1.83;;;0.93;;
7875;SDS011;69649;53.712;9.680;2023-10-08T04:43:44;2.20;;;1.10;;
7875;SDS011;69649;53.712;9.680;2023-10-08T04:46:11;2.43;;;1.20;;
7875;SDS011;69649;53.712;9.680;2023-10-08T04:48:55;5.67;;;1.23;;
7875;SDS011;69649;53.712;9.680;2023-10-08T04:51:23;1.77;;;0.97;;
7875;SDS011;69649;53.712;9.680;2023-10-08T04:53:49;1.77;;;1.10;;
7875;SDS011;69649;53.712;9.680;2023-10-08T04:56:15;2.53;;;1.03;;
7875;SDS011;69649;53.712;9.680;2023-10-08T04:58:48;2.43;;;1.07;;
7875;SDS011;69649;53.712;9.680;2023-10-08T05:04:05;2.87;;;1.17;;
7875;SDS011;69649;53.712;9.680;2023-10-08T05:09:03;2.13;;;1.23;;
7875;SDS011;69649;53.712;9.680;2023-10-08T05:11:44;3.20;;;1.30;;
7875;SDS011;69649;53.712;9.680;2023-10-08T05:14:20;2.97;;;1.20;;
7875;SDS011;69649;53.712;9.680;2023-10-08T05:17:07;1.80;;;1.10;;
7875;SDS011;69649;53.712;9.680;2023-10-08T05:19:39;2.87;;;1.50;;
7875;SDS011;69649;53.712;9.680;2023-10-08T05:22:08;1.10;;;1.00;;
7875;SDS011;69649;53.712;9.680;2023-10-08T05:24:47;1.23;;;0.93;;
7875;SDS011;69649;53.712;9.680;2023-10-08T05:27:18;4.87;;;1.10;;
7875;SDS011;69649;53.712;9.680;2023-10-08T05:30:03;3.37;;;1.10;;
7875;SDS011;69649;53.712;9.680;2023-10-08T05:32:58;1.57;;;0.90;;
7875;SDS011;69649;53.712;9.680;2023-10-08T05:35:40;1.97;;;1.10;;
7875;SDS011;69649;53.712;9.680;2023-10-08T05:38:10;4.70;;;1.50;;
7875;SDS011;69649;53.712;9.680;2023-10-08T05:40:51;2.37;;;1.03;;
7875;SDS011;69649;53.712;9.680;2023-10-08T05:46:12;3.97;;;1.60;;
7875;SDS011;69649;53.712;9.680;2023-10-08T05:48:52;4.57;;;1.30;;
7875;SDS011;69649;53.712;9.680;2023-10-08T05:51:29;2.93;;;1.17;;
7875;SDS011;69649;53.712;9.680;2023-10-08T05:57:05;2.40;;;1.20;;
7875;SDS011;69649;53.712;9.680;2023-10-08T05:59:43;3.23;;;1.10;;
7875;SDS011;69649;53.712;9.680;2023-10-08T06:02:30;1.57;;;1.07;;
7875;SDS011;69649;53.712;9.680;2023-10-08T06:10:17;1.57;;;1.30;;
7875;SDS011;69649;53.712;9.680;2023-10-08T06:12:53;2.47;;;1.60;;
7875;SDS011;69649;53.712;9.680;2023-10-08T06:15:21;5.57;;;1.60;;
7875;SDS011;69649;53.712;9.680;2023-10-08T06:17:49;2.57;;;1.30;;
7875;SDS011;69649;53.712;9.680;2023-10-08T06:20:25;3.50;;;1.57;;
7875;SDS011;69649;53.712;9.680;2023-10-08T06:22:52;4.03;;;1.57;;
7875;SDS011;69649;53.712;9.680;2023-10-08T06:25:20;2.40;;;1.40;;
7875;SDS011;69649;53.712;9.680;2023-10-08T06:27:50;1.97;;;1.77;;
7875;SDS011;69649;53.712;9.680;2023-10-08T06:30:21;2.00;;;1.40;;
7875;SDS011;69649;53.712;9.680;2023-10-08T06:32:50;2.77;;;1.10;;
7875;SDS011;69649;53.712;9.680;2023-10-08T06:35:16;2.83;;;1.20;;
7875;SDS011;69649;53.712;9.680;2023-10-08T06:40:26;3.00;;;1.13;;
7875;SDS011;69649;53.712;9.680;2023-10-08T06:43:06;3.03;;;1.27;;
7875;SDS011;69649;53.712;9.680;2023-10-08T06:45:39;2.33;;;1.10;;
7875;SDS011;69649;53.712;9.680;2023-10-08T06:48:06;2.40;;;1.30;;
7875;SDS011;69649;53.712;9.680;2023-10-08T06:50:35;3.03;;;1.13;;
7875;SDS011;69649;53.712;9.680;2023-10-08T06:53:04;1.03;;;0.93;;
7875;SDS011;69649;53.712;9.680;2023-10-08T06:55:33;2.57;;;1.17;;
7875;SDS011;69649;53.712;9.680;2023-10-08T06:58:03;1.77;;;1.10;;
7875;SDS011;69649;53.712;9.680;2023-10-08T07:00:34;1.33;;;1.10;;
7875;SDS011;69649;53.712;9.680;2023-10-08T07:03:04;3.00;;;1.23;;
7875;SDS011;69649;53.712;9.680;2023-10-08T07:05:33;1.63;;;1.30;;
7875;SDS011;69649;53.712;9.680;2023-10-08T07:08:04;5.83;;;1.57;;
7875;SDS011;69649;53.712;9.680;2023-10-08T07:10:32;1.80;;;1.30;;
7875;SDS011;69649;53.712;9.680;2023-10-08T07:13:02;5.07;;;1.50;;
7875;SDS011;69649;53.712;9.680;2023-10-08T07:15:29;1.70;;;1.20;;
7875;SDS011;69649;53.712;9.680;2023-10-08T07:17:57;2.43;;;1.03;;
7875;SDS011;69649;53.712;9.680;2023-10-08T07:20:25;2.27;;;1.60;;
7875;SDS011;69649;53.712;9.680;2023-10-08T07:22:51;4.20;;;1.50;;
7875;SDS011;69649;53.712;9.680;2023-10-08T07:25:18;6.20;;;1.10;;
7875;SDS011;69649;53.712;9.680;2023-10-08T07:27:46;2.67;;;1.07;;
7875;SDS011;69649;53.712;9.680;2023-10-08T07:30:12;3.70;;;1.13;;
7875;SDS011;69649;53.712;9.680;2023-10-08T07:32:40;2.43;;;1.17;;
7875;SDS011;69649;53.712;9.680;2023-10-08T07:35:06;4.20;;;1.10;;
7875;SDS011;69649;53.712;9.680;2023-10-08T07:37:47;4.57;;;1.47;;
7875;SDS011;69649;53.712;9.680;2023-10-08T07:40:13;2.43;;;1.30;;
7875;SDS011;69649;53.712;9.680;2023-10-08T07:42:40;1.53;;;1.27;;
7875;SDS011;69649;53.712;9.680;2023-10-08T07:45:06;2.93;;;1.83;;
7875;SDS011;69649;53.712;9.680;2023-10-08T07:47:32;9.80;;;1.47;;
7875;SDS011;69649;53.712;9.680;2023-10-08T07:49:58;4.17;;;1.53;;
7875;SDS011;69649;53.712;9.680;2023-10-08T07:52:24;4.80;;;1.20;;
7875;SDS011;69649;53.712;9.680;2023-10-08T07:54:50;2.03;;;1.30;;
7875;SDS011;69649;53.712;9.680;2023-10-08T07:57:16;4.13;;;1.43;;
7875;SDS011;69649;53.712;9.680;2023-10-08T07:59:47;1.90;;;1.10;;
7875;SDS011;69649;53.712;9.680;2023-10-08T08:02:22;6.23;;;1.47;;
7875;SDS011;69649;53.712;9.680;2023-10-08T08:04:52;1.67;;;1.03;;
7875;SDS011;69649;53.712;9.680;2023-10-08T08:07:19;4.10;;;1.47;;
7875;SDS011;69649;53.712;9.680;2023-10-08T08:09:46;3.97;;;1.50;;
7875;SDS011;69649;53.712;9.680;2023-10-08T08:12:16;2.97;;;1.37;;
7875;SDS011;69649;53.712;9.680;2023-10-08T08:14:44;4.80;;;1.10;;
7875;SDS011;69649;53.712;9.680;2023-10-08T08:17:11;2.73;;;1.30;;
7875;SDS011;69649;53.712;9.680;2023-10-08T08:19:40;2.90;;;1.03;;
7875;SDS011;69649;53.712;9.680;2023-10-08T08:22:10;2.37;;;1.37;;
7875;SDS011;69649;53.712;9.680;2023-10-08T08:24:38;5.77;;;1.50;;
7875;SDS011;69649;53.712;9.680;2023-10-08T08:27:03;2.83;;;1.10;;
7875;SDS011;69649;53.712;9.680;2023-10-08T08:29:40;4.67;;;1.30;;
7875;SDS011;69649;53.712;9.680;2023-10-08T08:32:14;1.97;;;1.20;;
7875;SDS011;69649;53.712;9.680;2023-10-08T08:34:44;4.93;;;1.20;;
7875;SDS011;69649;53.712;9.680;2023-10-08T08:37:13;6.87;;;1.50;;
7875;SDS011;69649;53.712;9.680;2023-10-08T08:39:39;4.60;;;2.03;;
7875;SDS011;69649;53.712;9.680;2023-10-08T08:42:06;3.50;;;1.50;;
7875;SDS011;69649;53.712;9.680;2023-10-08T08:44:35;3.70;;;2.40;;
7875;SDS011;69649;53.712;9.680;2023-10-08T08:47:03;4.17;;;1.73;;
7875;SDS011;69649;53.712;9.680;2023-10-08T08:49:32;5.07;;;2.53;;
7875;SDS011;69649;53.712;9.680;2023-10-08T08:52:00;3.30;;;1.30;;
7875;SDS011;69649;53.712;9.680;2023-10-08T08:54:27;2.13;;;1.00;;
7875;SDS011;69649;53.712;9.680;2023-10-08T08:56:55;4.60;;;1.10;;
7875;SDS011;69649;53.712;9.680;2023-10-08T08:59:21;2.90;;;1.00;;
7875;SDS011;69649;53.712;9.680;2023-10-08T09:01:47;3.80;;;1.30;;
7875;SDS011;69649;53.712;9.680;2023-10-08T09:04:16;2.27;;;1.43;;
7875;SDS011;69649;53.712;9.680;2023-10-08T09:06:42;5.93;;;1.23;;
7875;SDS011;69649;53.712;9.680;2023-10-08T09:09:10;1.50;;;0.93;;
7875;SDS011;69649;53.712;9.680;2023-10-08T09:11:41;1.83;;;1.00;;
7875;SDS011;69649;53.712;9.680;2023-10-08T09:14:08;2.60;;;1.00;;
7875;SDS011;69649;53.712;9.680;2023-10-08T09:16:35;5.87;;;1.10;;
7875;SDS011;69649;53.712;9.680;2023-10-08T09:19:02;6.10;;;1.47;;
7875;SDS011;69649;53.712;9.680;2023-10-08T09:21:29;2.97;;;1.00;;
7875;SDS011;69649;53.712;9.680;2023-10-08T09:23:55;3.03;;;1.20;;
7875;SDS011;69649;53.712;9.680;2023-10-08T09:26:25;1.50;;;1.00;;
7875;SDS011;69649;53.712;9.680;2023-10-08T09:28:52;5.00;;;1.20;;
7875;SDS011;69649;53.712;9.680;2023-10-08T09:31:18;6.87;;;1.30;;
7875;SDS011;69649;53.712;9.680;2023-10-08T09:33:57;5.13;;;1.30;;
7875;SDS011;69649;53.712;9.680;2023-10-08T09:36:36;2.20;;;0.80;;
7875;SDS011;69649;53.712;9.680;2023-10-08T09:39:03;3.90;;;0.90;;
7875;SDS011;69649;53.712;9.680;2023-10-08T09:41:32;5.70;;;1.13;;
7875;SDS011;69649;53.712;9.680;2023-10-08T09:43:59;4.27;;;1.23;;
7875;SDS011;69649;53.712;9.680;2023-10-08T09:46:29;1.07;;;0.80;;
7875;SDS011;69649;53.712;9.680;2023-10-08T09:48:59;4.63;;;1.10;;
7875;SDS011;69649;53.712;9.680;2023-10-08T09:51:29;2.77;;;1.00;;
7875;SDS011;69649;53.712;9.680;2023-10-08T09:56:43;2.93;;;1.10;;
7875;SDS011;69649;53.712;9.680;2023-10-08T09:59:10;1.33;;;0.90;;
7875;SDS011;69649;53.712;9.680;2023-10-08T10:01:37;2.30;;;0.90;;
7875;SDS011;69649;53.712;9.680;2023-10-08T10:04:06;1.77;;;0.90;;
7875;SDS011;69649;53.712;9.680;2023-10-08T10:06:36;2.63;;;1.10;;
7875;SDS011;69649;53.712;9.680;2023-10-08T10:09:03;3.07;;;1.00;;
7875;SDS011;69649;53.712;9.680;2023-10-08T10:11:32;2.30;;;0.90;;
7875;SDS011;69649;53.712;9.680;2023-10-08T10:13:58;1.57;;;0.80;;
7875;SDS011;69649;53.712;9.680;2023-10-08T10:16:25;4.57;;;1.10;;
7875;SDS011;69649;53.712;9.680;2023-10-08T10:18:55;2.60;;;1.20;;
7875;SDS011;69649;53.712;9.680;2023-10-08T10:21:32;5.07;;;0.90;;
7875;SDS011;69649;53.712;9.680;2023-10-08T10:23:58;1.90;;;1.00;;
7875;SDS011;69649;53.712;9.680;2023-10-08T10:31:42;3.87;;;1.10;;
7875;SDS011;69649;53.712;9.680;2023-10-08T10:34:10;2.13;;;1.00;;
7875;SDS011;69649;53.712;9.680;2023-10-08T10:36:38;1.67;;;0.90;;
7875;SDS011;69649;53.712;9.680;2023-10-08T10:39:06;2.20;;;1.13;;
7875;SDS011;69649;53.712;9.680;2023-10-08T10:41:51;1.77;;;1.20;;
7875;SDS011;69649;53.712;9.680;2023-10-08T10:44:19;0.97;;;0.80;;
7875;SDS011;69649;53.712;9.680;2023-10-08T10:46:46;4.67;;;1.40;;
7875;SDS011;69649;53.712;9.680;2023-10-08T10:49:20;2.63;;;0.80;;
7875;SDS011;69649;53.712;9.680;2023-10-08T10:51:51;1.53;;;0.90;;
7875;SDS011;69649;53.712;9.680;2023-10-08T10:54:23;4.03;;;0.90;;
7875;SDS011;69649;53.712;9.680;2023-10-08T10:56:50;2.40;;;0.80;;
7875;SDS011;69649;53.712;9.680;2023-10-08T10:59:29;1.53;;;0.90;;
7875;SDS011;69649;53.712;9.680;2023-10-08T11:01:57;2.10;;;0.90;;
7875;SDS011;69649;53.712;9.680;2023-10-08T11:04:37;3.43;;;0.90;;
7875;SDS011;69649;53.712;9.680;2023-10-08T11:07:16;2.87;;;0.70;;
7875;SDS011;69649;53.712;9.680;2023-10-08T11:09:49;2.33;;;0.90;;
7875;SDS011;69649;53.712;9.680;2023-10-08T11:12:18;2.47;;;1.10;;
7875;SDS011;69649;53.712;9.680;2023-10-08T11:14:46;1.90;;;0.80;;
7875;SDS011;69649;53.712;9.680;2023-10-08T11:17:13;1.80;;;0.77;;
7875;SDS011;69649;53.712;9.680;2023-10-08T11:19:41;2.07;;;0.87;;
7875;SDS011;69649;53.712;9.680;2023-10-08T11:22:09;3.80;;;1.20;;
7875;SDS011;69649;53.712;9.680;2023-10-08T11:24:37;2.27;;;1.00;;
7875;SDS011;69649;53.712;9.680;2023-10-08T11:27:05;1.63;;;0.87;;
7875;SDS011;69649;53.712;9.680;2023-10-08T11:29:48;1.73;;;0.80;;
7875;SDS011;69649;53.712;9.680;2023-10-08T11:32:16;4.87;;;0.97;;
7875;SDS011;69649;53.712;9.680;2023-10-08T11:34:46;2.13;;;0.80;;
7875;SDS011;69649;53.712;9.680;2023-10-08T11:37:14;2.00;;;0.70;;
7875;SDS011;69649;53.712;9.680;2023-10-08T11:39:46;1.57;;;0.90;;
7875;SDS011;69649;53.712;9.680;2023-10-08T11:42:12;2.83;;;0.80;;
7875;SDS011;69649;53.712;9.680;2023-10-08T11:44:58;2.00;;;0.93;;
7875;SDS011;69649;53.712;9.680;2023-10-08T11:47:25;2.17;;;0.87;;
7875;SDS011;69649;53.712;9.680;2023-10-08T11:49:53;1.80;;;0.70;;
7875;SDS011;69649;53.712;9.680;2023-10-08T11:52:21;4.63;;;1.07;;
7875;SDS011;69649;53.712;9.680;2023-10-08T11:54:47;2.27;;;0.77;;
7875;SDS011;69649;53.712;9.680;2023-10-08T11:57:14;1.13;;;0.70;;
7875;SDS011;69649;53.712;9.680;2023-10-08T11:59:42;3.23;;;0.87;;
7875;SDS011;69649;53.712;9.680;2023-10-08T12:02:08;1.70;;;0.70;;
7875;SDS011;69649;53.712;9.680;2023-10-08T12:04:33;2.40;;;1.00;;
7875;SDS011;69649;53.712;9.680;2023-10-08T12:07:01;1.83;;;0.70;;
7875;SDS011;69649;53.712;9.680;2023-10-08T12:09:31;2.90;;;0.80;;
7875;SDS011;69649;53.712;9.680;2023-10-08T12:11:59;1.57;;;1.00;;
7875;SDS011;69649;53.712;9.680;2023-10-08T12:14:25;1.83;;;0.70;;
7875;SDS011;69649;53.712;9.680;2023-10-08T12:16:53;1.57;;;0.80;;
7875;SDS011;69649;53.712;9.680;2023-10-08T12:19:21;2.40;;;0.83;;
7875;SDS011;69649;53.712;9.680;2023-10-08T12:21:47;2.03;;;0.90;;
7875;SDS011;69649;53.712;9.680;2023-10-08T12:24:13;3.43;;;1.20;;
7875;SDS011;69649;53.712;9.680;2023-10-08T12:26:39;2.87;;;0.80;;
7875;SDS011;69649;53.712;9.680;2023-10-08T12:29:11;0.90;;;0.63;;
7875;SDS011;69649;53.712;9.680;2023-10-08T12:31:39;1.80;;;0.80;;
7875;SDS011;69649;53.712;9.680;2023-10-08T12:34:06;1.07;;;0.80;;
7875;SDS011;69649;53.712;9.680;2023-10-08T12:36:32;3.47;;;0.90;;
7875;SDS011;69649;53.712;9.680;2023-10-08T12:39:01;2.47;;;1.13;;
7875;SDS011;69649;53.712;9.680;2023-10-08T12:41:38;2.03;;;1.00;;
7875;SDS011;69649;53.712;9.680;2023-10-08T12:44:04;3.43;;;0.87;;
7875;SDS011;69649;53.712;9.680;2023-10-08T12:46:32;4.23;;;1.00;;
7875;SDS011;69649;53.712;9.680;2023-10-08T12:48:59;3.73;;;1.13;;
7875;SDS011;69649;53.712;9.680;2023-10-08T12:51:27;1.23;;;0.87;;
7875;SDS011;69649;53.712;9.680;2023-10-08T12:53:56;1.63;;;0.80;;
7875;SDS011;69649;53.712;9.680;2023-10-08T12:56:23;0.90;;;0.80;;
7875;SDS011;69649;53.712;9.680;2023-10-08T12:59:00;2.87;;;0.90;;
7875;SDS011;69649;53.712;9.680;2023-10-08T13:01:27;3.33;;;0.80;;
7875;SDS011;69649;53.712;9.680;2023-10-08T13:03:55;2.17;;;0.90;;
7875;SDS011;69649;53.712;9.680;2023-10-08T13:06:29;0.77;;;0.70;;
7875;SDS011;69649;53.712;9.680;2023-10-08T13:08:55;2.73;;;0.77;;
7875;SDS011;69649;53.712;9.680;2023-10-08T13:11:22;2.37;;;0.80;;
7875;SDS011;69649;53.712;9.680;2023-10-08T13:13:54;4.87;;;1.20;;
7875;SDS011;69649;53.712;9.680;2023-10-08T13:16:19;1.77;;;0.70;;
7875;SDS011;69649;53.712;9.680;2023-10-08T13:18:47;2.00;;;0.83;;
7875;SDS011;69649;53.712;9.680;2023-10-08T13:21:13;3.90;;;0.93;;
7875;SDS011;69649;53.712;9.680;2023-10-08T13:23:39;3.83;;;0.90;;
7875;SDS011;69649;53.712;9.680;2023-10-08T13:26:06;1.80;;;0.90;;
7875;SDS011;69649;53.712;9.680;2023-10-08T13:28:33;2.83;;;0.80;;
7875;SDS011;69649;53.712;9.680;2023-10-08T13:31:04;1.30;;;0.70;;
7875;SDS011;69649;53.712;9.680;2023-10-08T13:33:37;2.80;;;0.90;;
7875;SDS011;69649;53.712;9.680;2023-10-08T13:36:09;3.90;;;1.00;;
7875;SDS011;69649;53.712;9.680;2023-10-08T13:38:35;2.37;;;1.20;;
7875;SDS011;69649;53.712;9.680;2023-10-08T13:41:02;2.47;;;0.90;;
7875;SDS011;69649;53.712;9.680;2023-10-08T13:43:29;1.90;;;0.80;;
7875;SDS011;69649;53.712;9.680;2023-10-08T13:46:00;2.43;;;1.03;;
7875;SDS011;69649;53.712;9.680;2023-10-08T13:48:30;3.03;;;0.90;;
7875;SDS011;69649;53.712;9.680;2023-10-08T13:51:02;2.50;;;0.90;;
7875;SDS011;69649;53.712;9.680;2023-10-08T13:53:26;1.87;;;0.87;;
7875;SDS011;69649;53.712;9.680;2023-10-08T13:56:01;2.53;;;1.17;;
7875;SDS011;69649;53.712;9.680;2023-10-08T13:58:30;2.53;;;1.20;;
7875;SDS011;69649;53.712;9.680;2023-10-08T14:00:59;2.87;;;0.83;;
7875;SDS011;69649;53.712;9.680;2023-10-08T14:03:30;4.27;;;0.87;;
7875;SDS011;69649;53.712;9.680;2023-10-08T14:05:58;3.33;;;1.03;;
7875;SDS011;69649;53.712;9.680;2023-10-08T14:08:30;4.40;;;1.20;;
7875;SDS011;69649;53.712;9.680;2023-10-08T14:10:57;2.27;;;1.00;;
7875;SDS011;69649;53.712;9.680;2023-10-08T14:13:29;1.43;;;1.00;;
7875;SDS011;69649;53.712;9.680;2023-10-08T14:15:57;1.20;;;0.90;;
7875;SDS011;69649;53.712;9.680;2023-10-08T14:18:28;1.20;;;0.90;;
7875;SDS011;69649;53.712;9.680;2023-10-08T14:20:54;2.17;;;1.13;;
7875;SDS011;69649;53.712;9.680;2023-10-08T14:23:21;2.10;;;1.00;;
7875;SDS011;69649;53.712;9.680;2023-10-08T14:25:50;1.00;;;0.77;;
7875;SDS011;69649;53.712;9.680;2023-10-08T14:28:19;4.70;;;1.17;;
7875;SDS011;69649;53.712;9.680;2023-10-08T14:30:48;1.90;;;0.97;;
7875;SDS011;69649;53.712;9.680;2023-10-08T14:33:16;7.03;;;1.20;;
7875;SDS011;69649;53.712;9.680;2023-10-08T14:35:44;2.43;;;1.40;;
7875;SDS011;69649;53.712;9.680;2023-10-08T14:38:28;2.97;;;1.27;;
7875;SDS011;69649;53.712;9.680;2023-10-08T14:41:12;1.67;;;1.20;;
7875;SDS011;69649;53.712;9.680;2023-10-08T14:43:56;3.50;;;1.03;;
7875;SDS011;69649;53.712;9.680;2023-10-08T14:46:23;2.63;;;1.30;;
7875;SDS011;69649;53.712;9.680;2023-10-08T14:48:50;2.83;;;1.17;;
7875;SDS011;69649;53.712;9.680;2023-10-08T14:51:15;4.77;;;1.50;;
7875;SDS011;69649;53.712;9.680;2023-10-08T14:53:43;3.23;;;1.50;;
7875;SDS011;69649;53.712;9.680;2023-10-08T14:56:10;2.47;;;1.60;;
7875;SDS011;69649;53.712;9.680;2023-10-08T14:58:35;2.23;;;1.60;;
7875;SDS011;69649;53.712;9.680;2023-10-08T15:01:01;1.87;;;1.33;;
7875;SDS011;69649;53.712;9.680;2023-10-08T15:03:27;2.83;;;1.30;;
7875;SDS011;69649;53.712;9.680;2023-10-08T15:05:53;3.03;;;1.67;;
7875;SDS011;69649;53.712;9.680;2023-10-08T15:08:20;3.23;;;1.40;;
7875;SDS011;69649;53.712;9.680;2023-10-08T15:10:47;2.80;;;1.30;;
7875;SDS011;69649;53.712;9.680;2023-10-08T15:13:13;1.90;;;1.50;;
7875;SDS011;69649;53.712;9.680;2023-10-08T15:15:39;3.40;;;1.60;;
7875;SDS011;69649;53.712;9.680;2023-10-08T15:18:05;2.50;;;1.50;;
7875;SDS011;69649;53.712;9.680;2023-10-08T15:20:31;3.57;;;1.20;;
7875;SDS011;69649;53.712;9.680;2023-10-08T15:22:59;6.03;;;1.50;;
7875;SDS011;69649;53.712;9.680;2023-10-08T15:25:25;2.30;;;1.50;;
7875;SDS011;69649;53.712;9.680;2023-10-08T15:27:51;1.90;;;1.33;;
7875;SDS011;69649;53.712;9.680;2023-10-08T15:30:17;2.80;;;1.60;;
7875;SDS011;69649;53.712;9.680;2023-10-08T15:32:47;4.50;;;1.60;;
7875;SDS011;69649;53.712;9.680;2023-10-08T15:35:15;3.20;;;1.97;;
7875;SDS011;69649;53.712;9.680;2023-10-08T15:37:44;5.30;;;2.37;;
7875;SDS011;69649;53.712;9.680;2023-10-08T15:40:10;4.40;;;2.40;;
7875;SDS011;69649;53.712;9.680;2023-10-08T15:42:38;7.07;;;2.93;;
7875;SDS011;69649;53.712;9.680;2023-10-08T15:45:04;5.00;;;2.47;;
7875;SDS011;69649;53.712;9.680;2023-10-08T15:47:31;4.90;;;2.60;;